createdAt,value
2022-08-02T00:01:25.955Z,51.80
2022-08-02T00:03:54.689Z,51.65
2022-08-02T00:06:23.836Z,51.85
2022-08-02T00:08:53.910Z,52.14
2022-08-02T00:11:22.696Z,51.88
2022-08-02T00:13:51.603Z,51.87
2022-08-02T00:16:20.382Z,52.13
2022-08-02T00:19:08.175Z,51.99
2022-08-02T00:21:37.104Z,52.05
2022-08-02T00:24:28.601Z,51.89
2022-08-02T00:26:55.260Z,51.78
2022-08-02T00:29:23.991Z,51.71
2022-08-02T00:31:52.768Z,51.71
2022-08-02T00:34:29.839Z,51.46
2022-08-02T00:37:00.180Z,51.62
2022-08-02T00:39:34.119Z,51.52
2022-08-02T00:42:04.899Z,51.56
2022-08-02T00:44:33.850Z,51.78
2022-08-02T00:47:02.745Z,51.73
2022-08-02T00:49:33.305Z,51.99
2022-08-02T00:52:02.317Z,52.16
2022-08-02T00:54:31.066Z,52.02
2022-08-02T00:56:59.827Z,52.19
2022-08-02T00:59:28.771Z,52.23
2022-08-02T01:01:58.425Z,52.13
2022-08-02T01:04:31.448Z,52.32
2022-08-02T01:07:12.250Z,52.29
2022-08-02T01:09:43.072Z,52.18
2022-08-02T01:12:13.035Z,52.03
2022-08-02T01:14:43.034Z,51.83
2022-08-02T01:17:13.296Z,51.85
2022-08-02T01:19:48.460Z,52.01
2022-08-02T01:22:58.518Z,51.97
2022-08-02T01:25:27.011Z,51.84
2022-08-02T01:28:16.402Z,51.81
2022-08-02T01:30:49.125Z,52.11
2022-08-02T01:33:22.303Z,52.27
2022-08-02T01:35:54.102Z,52.39
2022-08-02T01:38:25.272Z,52.58
2022-08-02T01:40:55.813Z,52.98
2022-08-02T01:43:26.800Z,53.11
2022-08-02T01:45:57.660Z,53.58
2022-08-02T01:48:27.644Z,53.46
2022-08-02T01:50:57.067Z,53.90
2022-08-02T01:53:28.123Z,54.25
2022-08-02T01:55:59.301Z,54.21
2022-08-02T01:58:29.991Z,54.19
2022-08-02T02:01:01.134Z,54.21
2022-08-02T02:03:30.687Z,54.27
2022-08-02T02:06:04.185Z,54.58
2022-08-02T02:08:35.130Z,54.77
2022-08-02T02:12:06.215Z,54.76
2022-08-02T02:13:56.218Z,55.18
2022-08-02T02:16:27.369Z,55.44
2022-08-02T02:18:56.434Z,55.70
2022-08-02T02:21:25.283Z,55.83
2022-08-02T02:23:54.181Z,55.90
2022-08-02T02:26:29.622Z,55.87
2022-08-02T02:29:02.514Z,56.15
2022-08-02T02:31:35.631Z,56.21
2022-08-02T02:34:06.973Z,56.24
2022-08-02T02:36:35.985Z,56.27
2022-08-02T02:39:11.611Z,56.48
2022-08-02T02:41:43.612Z,56.43
2022-08-02T02:44:14.576Z,56.46
2022-08-02T02:46:45.476Z,56.69
2022-08-02T02:49:16.317Z,56.56
2022-08-02T02:51:45.523Z,56.82
2022-08-02T02:54:31.069Z,56.83
2022-08-02T02:57:04.482Z,57.13
2022-08-02T02:59:33.925Z,57.15
2022-08-02T03:02:05.747Z,57.51
2022-08-02T03:04:55.998Z,57.63
2022-08-02T03:07:26.072Z,57.61
2022-08-02T03:09:55.487Z,57.66
2022-08-02T03:12:28.843Z,57.98
2022-08-02T03:14:59.750Z,58.04
2022-08-02T03:17:39.795Z,57.98
2022-08-02T03:20:10.850Z,58.24
2022-08-02T03:22:39.721Z,58.28
2022-08-02T03:25:09.081Z,58.13
2022-08-02T03:27:38.066Z,58.49
2022-08-02T03:30:08.030Z,58.39
2022-08-02T03:32:37.626Z,58.54
2022-08-02T03:35:09.393Z,58.54
2022-08-02T03:37:38.692Z,58.84
2022-08-02T03:40:09.840Z,59.02
2022-08-02T03:42:40.192Z,59.25
2022-08-02T03:45:10.188Z,59.49
2022-08-02T03:47:39.344Z,59.67
2022-08-02T03:50:12.432Z,59.76
2022-08-02T03:52:42.832Z,59.88
2022-08-02T03:55:12.647Z,59.68
2022-08-02T03:57:42.295Z,59.81
2022-08-02T04:00:13.108Z,60.14
2022-08-02T04:02:42.563Z,60.00
2022-08-02T04:05:12.714Z,60.14
2022-08-02T04:08:33.315Z,60.08
2022-08-02T04:10:30.532Z,60.12
2022-08-02T04:12:59.721Z,60.91
2022-08-02T04:15:28.612Z,60.54
2022-08-02T04:18:01.120Z,60.55
2022-08-02T04:20:32.681Z,61.19
2022-08-02T04:23:02.678Z,61.36
2022-08-02T04:25:36.457Z,61.23
2022-08-02T04:28:17.158Z,61.36
2022-08-02T04:30:47.984Z,61.13
2022-08-02T04:33:17.715Z,61.17
2022-08-02T04:35:48.000Z,61.32
2022-08-02T04:38:17.274Z,61.68
2022-08-02T04:40:53.055Z,62.45
2022-08-02T04:43:22.109Z,61.67
2022-08-02T04:45:52.619Z,61.64
2022-08-02T04:48:21.471Z,61.55
2022-08-02T04:50:52.334Z,62.05
2022-08-02T04:53:21.398Z,61.63
2022-08-02T04:55:50.246Z,62.13
2022-08-02T04:58:39.264Z,61.88
2022-08-02T05:01:07.872Z,61.85
2022-08-02T05:03:36.823Z,61.86
2022-08-02T05:06:07.628Z,61.62
2022-08-02T05:08:52.762Z,61.65
2022-08-02T05:11:34.171Z,61.49
2022-08-02T05:14:05.256Z,62.09
2022-08-02T05:16:34.097Z,61.58
2022-08-02T05:19:03.166Z,61.41
2022-08-02T05:21:33.832Z,61.53
2022-08-02T05:24:02.629Z,61.46
2022-08-02T05:26:31.351Z,61.81
2022-08-02T05:29:00.384Z,61.46
2022-08-02T05:31:29.292Z,61.34
2022-08-02T05:33:58.040Z,61.76
2022-08-02T05:36:26.985Z,60.95
2022-08-02T05:38:59.626Z,61.23
2022-08-02T05:41:34.185Z,60.83
2022-08-02T05:44:02.953Z,61.25
2022-08-02T05:46:31.727Z,60.90
2022-08-02T05:49:00.705Z,60.88
2022-08-02T05:51:32.503Z,60.67
2022-08-02T05:54:07.526Z,60.24
2022-08-02T05:56:39.949Z,60.57
2022-08-02T05:59:13.297Z,59.98
2022-08-02T06:01:43.910Z,60.07
2022-08-02T06:04:18.377Z,60.09
2022-08-02T06:06:50.978Z,59.86
2022-08-02T06:09:25.194Z,59.98
2022-08-02T06:12:02.573Z,59.98
2022-08-02T06:14:32.691Z,59.78
2022-08-02T06:17:02.109Z,59.62
2022-08-02T06:19:50.857Z,59.17
2022-08-02T06:22:32.483Z,59.11
2022-08-02T06:25:48.313Z,58.65
2022-08-02T06:28:02.123Z,58.76
2022-08-02T06:30:31.736Z,58.37
2022-08-02T06:33:02.576Z,58.46
2022-08-02T06:35:35.460Z,58.14
2022-08-02T06:38:05.161Z,58.11
2022-08-02T06:40:37.190Z,57.96
2022-08-02T06:43:13.139Z,57.36
2022-08-02T06:45:42.133Z,57.11
2022-08-02T06:48:11.338Z,57.05
2022-08-02T06:50:42.090Z,56.82
2022-08-02T06:53:11.061Z,56.50
2022-08-02T06:55:44.123Z,56.32
2022-08-02T06:58:13.378Z,56.21
2022-08-02T07:00:43.799Z,56.11
2022-08-02T07:03:12.848Z,56.04
2022-08-02T07:05:41.775Z,55.45
2022-08-02T07:08:10.640Z,54.61
2022-08-02T07:10:39.399Z,54.61
2022-08-02T07:13:09.469Z,54.42
2022-08-02T07:15:38.439Z,53.36
2022-08-02T07:18:07.757Z,53.92
2022-08-02T07:20:37.185Z,53.93
2022-08-02T07:23:06.038Z,53.97
2022-08-02T07:26:03.208Z,53.57
2022-08-02T07:28:25.153Z,53.86
2022-08-02T07:30:53.931Z,54.04
2022-08-02T07:33:38.148Z,53.16
2022-08-02T07:36:17.073Z,53.50
2022-08-02T07:38:51.632Z,53.47
2022-08-02T07:41:22.259Z,53.41
2022-08-02T07:43:52.963Z,52.97
2022-08-02T07:46:21.894Z,52.78
2022-08-02T07:48:53.416Z,53.38
2022-08-02T07:51:22.307Z,53.06
2022-08-02T07:54:02.371Z,52.40
2022-08-02T07:56:33.726Z,52.18
2022-08-02T07:59:03.833Z,52.41
2022-08-02T08:01:32.589Z,52.38
2022-08-02T08:04:01.526Z,51.87
2022-08-02T08:06:30.855Z,51.32
2022-08-02T08:09:00.220Z,51.37
2022-08-02T08:11:29.138Z,51.26
2022-08-02T08:13:57.990Z,51.46
2022-08-02T08:16:29.195Z,50.87
2022-08-02T08:18:58.463Z,50.94
2022-08-02T08:21:27.143Z,50.93
2022-08-02T08:23:55.925Z,50.65
2022-08-02T08:26:26.730Z,50.56
2022-08-02T08:28:55.493Z,50.42
2022-08-02T08:31:24.227Z,50.58
2022-08-02T08:33:54.468Z,51.05
2022-08-02T08:36:23.195Z,51.05
2022-08-02T08:38:52.020Z,50.97
2022-08-02T08:41:21.217Z,50.74
2022-08-02T08:43:53.234Z,50.90
2022-08-02T08:46:28.214Z,50.54
2022-08-02T08:49:00.757Z,50.24
2022-08-02T08:51:32.243Z,50.08
2022-08-02T08:54:03.798Z,50.14
2022-08-02T08:56:34.524Z,50.17
2022-08-02T08:59:05.308Z,49.89
2022-08-02T09:01:49.809Z,49.65
2022-08-02T09:04:20.966Z,49.63
2022-08-02T09:06:50.174Z,49.92
2022-08-02T09:09:18.936Z,49.43
2022-08-02T09:11:47.876Z,49.43
2022-08-02T09:14:27.050Z,49.26
2022-08-02T09:17:06.784Z,48.80
2022-08-02T09:19:37.196Z,48.67
2022-08-02T09:22:08.008Z,48.82
2022-08-02T09:24:44.701Z,48.48
2022-08-02T09:27:14.580Z,48.38
2022-08-02T09:30:11.642Z,47.94
2022-08-02T09:32:45.445Z,47.66
2022-08-02T09:36:06.745Z,47.95
2022-08-02T09:38:21.083Z,48.27
2022-08-02T09:40:49.987Z,48.18
2022-08-02T09:43:20.041Z,48.51
2022-08-02T09:45:48.852Z,47.84
2022-08-02T09:48:17.797Z,47.85
2022-08-02T09:50:47.984Z,47.72
2022-08-02T09:53:17.870Z,48.54
2022-08-02T09:55:56.090Z,47.90
2022-08-02T09:58:24.825Z,47.30
2022-08-02T10:00:54.645Z,47.46
2022-08-02T10:03:28.086Z,47.75
2022-08-02T10:06:05.516Z,47.22
2022-08-02T10:08:34.338Z,46.42
2022-08-02T10:11:03.574Z,46.80
2022-08-02T10:13:34.565Z,46.40
2022-08-02T10:16:03.816Z,46.66
2022-08-02T10:18:41.039Z,46.54
2022-08-02T10:21:13.510Z,45.84
2022-08-02T10:23:43.981Z,45.98
2022-08-02T10:26:17.395Z,46.20
2022-08-02T10:28:47.821Z,46.61
2022-08-02T10:31:20.322Z,46.96
2022-08-02T10:33:50.594Z,46.91
2022-08-02T10:36:23.664Z,47.20
2022-08-02T10:38:52.436Z,45.56
2022-08-02T10:41:36.368Z,45.29
2022-08-02T10:44:05.878Z,45.23
2022-08-02T10:46:35.787Z,45.50
2022-08-02T10:52:08.100Z,45.97
2022-08-02T10:54:38.362Z,46.25
2022-08-02T10:57:20.746Z,45.98
2022-08-02T10:59:50.596Z,45.66
2022-08-02T11:02:39.054Z,45.88
2022-08-02T11:05:11.477Z,44.84
2022-08-02T11:07:47.416Z,44.68
2022-08-02T11:10:35.225Z,45.27
2022-08-02T11:13:05.806Z,45.73
2022-08-02T11:15:52.131Z,45.22
2022-08-02T11:18:22.087Z,44.69
2022-08-02T11:21:05.827Z,44.21
2022-08-02T11:23:44.662Z,43.48
2022-08-02T11:26:33.209Z,43.35
2022-08-02T11:29:03.467Z,43.37
2022-08-02T11:31:39.617Z,43.81
2022-08-02T11:34:09.895Z,43.86
2022-08-02T11:36:46.143Z,44.26
2022-08-02T11:39:17.782Z,43.93
2022-08-02T11:41:50.136Z,44.67
2022-08-02T11:44:19.236Z,45.08
2022-08-02T11:46:55.186Z,45.48
2022-08-02T11:49:24.435Z,45.83
2022-08-02T11:51:57.590Z,44.14
2022-08-02T11:54:29.161Z,44.48
2022-08-02T11:57:10.159Z,44.21
2022-08-02T11:59:40.106Z,44.79
2022-08-02T12:02:09.888Z,44.48
2022-08-02T12:04:39.478Z,44.21
2022-08-02T12:07:09.465Z,44.82
2022-08-02T12:09:41.374Z,45.20
2022-08-02T12:12:10.737Z,45.48
2022-08-02T12:14:43.620Z,45.92
2022-08-02T12:17:30.102Z,45.80
2022-08-02T12:19:58.783Z,45.78
2022-08-02T12:22:28.538Z,46.38
2022-08-02T12:24:59.042Z,46.20
2022-08-02T12:27:32.715Z,46.44
2022-08-02T12:30:02.958Z,46.81
2022-08-02T12:32:31.910Z,46.67
2022-08-02T12:35:05.282Z,46.67
2022-08-02T12:37:34.513Z,46.97
2022-08-02T12:40:18.298Z,47.08
2022-08-02T12:42:52.010Z,47.18
2022-08-02T12:45:21.153Z,47.10
2022-08-02T12:47:51.213Z,47.38
2022-08-02T12:50:22.317Z,47.25
2022-08-02T12:52:51.586Z,47.21
2022-08-02T12:55:21.771Z,47.38
2022-08-02T12:57:56.080Z,47.37
2022-08-02T13:00:25.965Z,46.98
2022-08-02T13:02:54.819Z,46.78
2022-08-02T13:05:23.700Z,46.77
2022-08-02T13:07:53.080Z,46.87
2022-08-02T13:10:22.638Z,46.46
2022-08-02T13:12:51.401Z,46.21
2022-08-02T13:15:48.957Z,46.24
2022-08-02T13:18:11.281Z,46.53
2022-08-02T13:20:45.358Z,46.38
2022-08-02T13:23:21.847Z,46.62
2022-08-02T13:25:52.757Z,46.56
2022-08-02T13:28:22.102Z,46.30
2022-08-02T13:30:52.166Z,46.30
2022-08-02T13:33:21.368Z,46.57
2022-08-02T13:35:50.806Z,46.09
2022-08-02T13:38:24.551Z,46.03
2022-08-02T13:41:13.611Z,46.28
2022-08-02T13:43:52.908Z,46.31
2022-08-02T13:46:29.280Z,46.43
2022-08-02T13:48:59.352Z,46.12
2022-08-02T13:51:28.294Z,46.57
2022-08-02T13:53:57.002Z,47.12
2022-08-02T13:56:35.586Z,47.69
2022-08-02T13:59:54.165Z,48.66
2022-08-02T14:01:56.597Z,48.94
2022-08-02T14:04:26.403Z,49.16
2022-08-02T14:06:58.883Z,49.49
2022-08-02T14:09:28.221Z,49.51
2022-08-02T14:11:56.999Z,49.12
2022-08-02T14:14:25.698Z,48.08
2022-08-02T14:16:56.183Z,47.59
2022-08-02T14:19:25.360Z,46.89
2022-08-02T14:21:54.064Z,46.63
2022-08-02T14:24:41.596Z,46.30
2022-08-02T14:27:10.453Z,45.93
2022-08-02T14:29:39.237Z,45.58
2022-08-02T14:32:10.161Z,45.44
2022-08-02T14:34:39.233Z,44.89
2022-08-02T14:37:07.917Z,44.65
2022-08-02T14:39:42.936Z,43.86
2022-08-02T14:42:25.873Z,44.19
2022-08-02T14:44:54.769Z,44.36
2022-08-02T14:47:25.223Z,43.56
2022-08-02T14:49:54.034Z,43.34
2022-08-02T14:52:22.986Z,43.78
2022-08-02T14:54:51.769Z,43.01
2022-08-02T14:57:20.469Z,42.54
2022-08-02T14:59:49.351Z,42.59
2022-08-02T15:02:19.372Z,42.26
2022-08-02T15:04:49.423Z,41.89
2022-08-02T15:07:18.381Z,41.92
2022-08-02T15:09:47.116Z,41.83
2022-08-02T15:12:16.087Z,41.93
2022-08-02T15:14:45.305Z,41.40
2022-08-02T15:17:14.333Z,41.42
2022-08-02T15:19:58.016Z,40.91
2022-08-02T15:22:31.057Z,41.01
2022-08-02T15:25:00.950Z,40.95
2022-08-02T15:27:30.090Z,40.86
2022-08-02T15:30:01.135Z,40.60
2022-08-02T15:32:29.886Z,40.46
2022-08-02T15:34:58.796Z,39.95
2022-08-02T15:37:31.054Z,39.89
2022-08-02T15:40:01.907Z,39.89
2022-08-02T15:42:31.076Z,39.44
2022-08-02T15:45:00.313Z,39.70
2022-08-02T15:47:29.318Z,38.99
2022-08-02T15:49:58.663Z,39.07
2022-08-02T15:52:27.666Z,39.20
2022-08-02T15:54:57.327Z,39.18
2022-08-02T15:57:39.176Z,39.56
2022-08-02T16:00:15.751Z,38.82
2022-08-02T16:02:48.191Z,38.61
2022-08-02T16:05:18.318Z,39.23
2022-08-02T16:07:47.528Z,38.80
2022-08-02T16:10:16.629Z,38.79
2022-08-02T16:12:47.187Z,38.48
2022-08-02T16:15:15.951Z,38.65
2022-08-02T16:17:48.698Z,38.61
2022-08-02T16:20:23.155Z,38.90
2022-08-02T16:22:51.851Z,38.64
2022-08-02T16:25:20.668Z,38.90
2022-08-02T16:27:57.595Z,38.92
2022-08-02T16:30:35.811Z,38.08
2022-08-02T16:33:05.253Z,37.46
2022-08-02T16:35:34.930Z,37.94
2022-08-02T16:38:03.626Z,38.16
2022-08-02T16:40:34.376Z,37.01
2022-08-02T16:43:09.011Z,36.20
2022-08-02T16:45:38.286Z,35.67
2022-08-02T16:48:09.131Z,34.58
2022-08-02T16:50:38.292Z,33.65
2022-08-02T16:53:07.894Z,33.91
2022-08-02T16:55:37.358Z,33.49
2022-08-02T16:58:09.743Z,33.79
2022-08-02T17:00:38.887Z,34.32
2022-08-02T17:03:15.574Z,33.59
2022-08-02T17:05:55.687Z,34.07
2022-08-02T17:08:31.663Z,33.73
2022-08-02T17:14:01.603Z,33.71
2022-08-02T17:16:30.826Z,33.89
2022-08-02T17:19:00.919Z,34.25
2022-08-02T17:21:32.564Z,34.04
2022-08-02T17:24:07.839Z,34.43
2022-08-02T17:26:37.833Z,34.44
2022-08-02T17:29:15.320Z,34.43
2022-08-02T17:32:02.497Z,34.37
2022-08-02T17:34:36.129Z,34.70
2022-08-02T17:37:05.598Z,34.55
2022-08-02T17:42:25.163Z,34.79
2022-08-02T17:45:01.147Z,35.12
2022-08-02T17:48:03.949Z,35.22
2022-08-02T17:50:33.476Z,35.38
2022-08-02T17:53:02.433Z,35.07
2022-08-02T17:55:33.201Z,35.60
2022-08-02T17:58:02.065Z,35.26
2022-08-02T18:00:34.353Z,35.69
2022-08-02T18:03:06.286Z,35.87
2022-08-02T18:08:38.800Z,35.71
2022-08-02T18:11:10.525Z,35.86
2022-08-02T18:13:44.172Z,36.19
2022-08-02T18:16:22.298Z,36.19
2022-08-02T18:18:51.121Z,36.15
2022-08-02T18:21:22.519Z,36.21
2022-08-02T18:23:58.738Z,36.32
2022-08-02T18:26:28.693Z,36.33
2022-08-02T18:28:59.367Z,36.71
2022-08-02T18:31:28.943Z,36.72
2022-08-02T18:34:08.963Z,36.75
2022-08-02T18:36:47.059Z,36.79
2022-08-02T18:39:17.453Z,36.84
2022-08-02T18:41:47.817Z,36.95
2022-08-02T18:44:18.661Z,36.92
2022-08-02T18:46:49.346Z,37.13
2022-08-02T18:49:18.801Z,37.14
2022-08-02T18:51:49.347Z,37.47
2022-08-02T18:54:30.609Z,37.42
2022-08-02T18:57:00.482Z,37.49
2022-08-02T18:59:29.318Z,37.60
2022-08-02T19:02:06.614Z,37.69
2022-08-02T19:04:35.594Z,37.78
2022-08-02T19:07:08.219Z,37.80
2022-08-02T19:09:40.200Z,37.88
2022-08-02T19:12:11.540Z,38.04
2022-08-02T19:14:41.182Z,38.00
2022-08-02T19:17:53.253Z,38.18
2022-08-02T19:19:59.678Z,38.58
2022-08-02T19:22:30.298Z,38.54
2022-08-02T19:25:01.446Z,38.47
2022-08-02T19:27:32.862Z,38.58
2022-08-02T19:30:03.613Z,38.50
2022-08-02T19:32:42.939Z,38.74
2022-08-02T19:35:30.855Z,38.87
2022-08-02T19:38:09.643Z,39.29
2022-08-02T19:40:39.964Z,39.30
2022-08-02T19:44:27.032Z,39.31
2022-08-02T19:45:58.170Z,39.12
2022-08-02T19:48:28.224Z,39.20
2022-08-02T19:50:59.477Z,39.59
2022-08-02T19:53:49.450Z,39.59
2022-08-02T19:56:24.868Z,39.74
2022-08-02T19:58:57.020Z,39.62
2022-08-02T20:01:38.855Z,39.78
2022-08-02T20:04:13.604Z,39.74
2022-08-02T20:09:46.950Z,39.96
2022-08-02T20:12:16.595Z,39.96
2022-08-02T20:14:51.279Z,40.54
2022-08-02T20:17:21.101Z,40.42
2022-08-02T20:19:50.267Z,40.17
2022-08-02T20:22:21.103Z,40.17
2022-08-02T20:24:51.275Z,40.35
2022-08-02T20:27:23.784Z,40.62
2022-08-02T20:29:52.789Z,40.69
2022-08-02T20:32:24.373Z,40.67
2022-08-02T20:34:53.398Z,41.20
2022-08-02T20:37:59.497Z,40.67
2022-08-02T20:40:17.295Z,41.18
2022-08-02T20:42:48.461Z,41.19
2022-08-02T20:45:17.647Z,41.47
2022-08-02T20:47:49.757Z,41.51
2022-08-02T20:50:38.149Z,41.30
2022-08-02T20:53:07.934Z,41.46
2022-08-02T20:55:42.810Z,41.81
2022-08-02T20:58:12.546Z,41.75
2022-08-02T21:00:41.655Z,41.72
2022-08-02T21:03:11.696Z,41.88
2022-08-02T21:05:54.958Z,41.94
2022-08-02T21:08:25.109Z,42.09
2022-08-02T21:10:55.653Z,41.94
2022-08-02T21:13:26.578Z,42.50
2022-08-02T21:16:00.504Z,42.62
2022-08-02T21:18:33.341Z,42.71
2022-08-02T21:21:10.249Z,42.44
2022-08-02T21:23:44.927Z,42.46
2022-08-02T21:26:19.872Z,42.69
2022-08-02T21:28:55.284Z,42.67
2022-08-02T21:31:24.185Z,42.88
2022-08-02T21:34:00.482Z,43.21
2022-08-02T21:36:31.885Z,43.05
2022-08-02T21:39:04.703Z,43.22
2022-08-02T21:41:38.900Z,43.11
2022-08-02T21:44:15.800Z,43.52
2022-08-02T21:46:45.752Z,43.66
2022-08-02T21:49:14.938Z,43.85
2022-08-02T21:51:49.280Z,43.89
2022-08-02T21:54:20.924Z,44.26
2022-08-02T21:57:15.570Z,44.18
2022-08-02T21:59:46.364Z,44.39
2022-08-02T22:02:15.559Z,44.56
2022-08-02T22:04:47.631Z,44.42
2022-08-02T22:07:17.772Z,44.64
2022-08-02T22:09:53.573Z,44.45
2022-08-02T22:12:25.866Z,44.47
2022-08-02T22:14:56.385Z,44.72
2022-08-02T22:17:46.782Z,44.62
2022-08-02T22:20:19.955Z,45.13
2022-08-02T22:22:51.355Z,45.03
2022-08-02T22:25:36.022Z,44.96
2022-08-02T22:28:35.762Z,45.00
2022-08-02T22:34:04.529Z,45.22
2022-08-02T22:36:43.219Z,45.29
2022-08-02T22:39:19.387Z,45.26
2022-08-02T22:44:39.000Z,45.54
2022-08-02T22:47:14.628Z,45.44
2022-08-02T22:49:54.307Z,45.73
2022-08-02T22:52:24.861Z,45.75
2022-08-02T22:54:54.808Z,45.75
2022-08-02T22:57:25.018Z,45.96
2022-08-02T22:58:39.641Z,34.68
2022-08-02T22:58:43.168Z,35.69
2022-08-02T22:59:07.696Z,39.97
2022-08-02T22:59:10.288Z,45.36
2022-08-02T23:00:01.420Z,46.20
2022-08-02T23:02:30.293Z,46.18
2022-08-02T23:04:59.124Z,46.52
2022-08-02T23:07:28.428Z,46.68
2022-08-02T23:10:07.881Z,46.68
2022-08-02T23:12:36.778Z,46.44
2022-08-02T23:15:07.498Z,46.42
2022-08-02T23:17:53.668Z,46.54
2022-08-02T23:20:22.748Z,46.79
2022-08-02T23:22:51.654Z,46.91
2022-08-02T23:25:20.455Z,46.93
2022-08-02T23:27:51.303Z,46.90
2022-08-02T23:30:21.814Z,46.97
2022-08-02T23:32:50.724Z,47.13
2022-08-02T23:35:19.515Z,47.10
2022-08-02T23:38:00.301Z,47.20
2022-08-02T23:40:40.689Z,47.25
2022-08-02T23:43:13.892Z,47.27
2022-08-02T23:45:46.631Z,47.06
2022-08-02T23:48:15.718Z,47.48
2022-08-02T23:50:44.458Z,47.46
2022-08-02T23:53:13.583Z,47.43
2022-08-02T23:55:42.373Z,47.32
2022-08-02T23:58:12.606Z,47.57
